sensor_id;sensor_type;location;lat;lon;timestamp;temperature;humidity
4960;DHT22;2495;48.200;11.532;2023-05-10T04:12:43;16.60;90.20
4960;DHT22;2495;48.200;11.532;2023-05-10T04:18:07;16.40;90.40
4960;DHT22;2495;48.200;11.532;2023-05-10T04:23:09;16.30;90.40
4960;DHT22;2495;48.200;11.532;2023-05-10T04:28:10;16.20;90.50
4960;DHT22;2495;48.200;11.532;2023-05-10T04:33:11;16.20;91.40
4960;DHT22;2495;48.200;11.532;2023-05-10T04:38:12;16.50;91.20
4960;DHT22;2495;48.200;11.532;2023-05-10T04:43:13;16.50;90.70
4960;DHT22;2495;48.200;11.532;2023-05-10T04:48:15;16.40;90.70
4960;DHT22;2495;48.200;11.532;2023-05-10T04:53:16;16.30;91.40
4960;DHT22;2495;48.200;11.532;2023-05-10T04:58:17;16.50;91.30
4960;DHT22;2495;48.200;11.532;2023-05-10T05:03:18;16.70;91.20
4960;DHT22;2495;48.200;11.532;2023-05-10T05:08:19;16.70;90.70
4960;DHT22;2495;48.200;11.532;2023-05-10T05:13:21;16.40;90.70
4960;DHT22;2495;48.200;11.532;2023-05-10T05:18:22;16.20;90.80
4960;DHT22;2495;48.200;11.532;2023-05-10T05:23:23;16.10;91.40
4960;DHT22;2495;48.200;11.532;2023-05-10T05:28:24;16.30;91.30
4960;DHT22;2495;48.200;11.532;2023-05-10T05:33:25;16.20;90.70
4960;DHT22;2495;48.200;11.532;2023-05-10T05:38:27;16.10;90.40
4960;DHT22;2495;48.200;11.532;2023-05-10T05:43:28;16.00;90.70
4960;DHT22;2495;48.200;11.532;2023-05-10T05:48:29;16.10;90.60
4960;DHT22;2495;48.200;11.532;2023-05-10T05:53:30;16.00;90.10
4960;DHT22;2495;48.200;11.532;2023-05-10T05:58:32;15.80;90.20
4960;DHT22;2495;48.200;11.532;2023-05-10T06:03:33;16.10;90.70
4960;DHT22;2495;48.200;11.532;2023-05-10T06:08:34;16.20;90.40
4960;DHT22;2495;48.200;11.532;2023-05-10T06:13:35;16.10;90.10
4960;DHT22;2495;48.200;11.532;2023-05-10T06:18:37;16.00;90.20
4960;DHT22;2495;48.200;11.532;2023-05-10T06:23:38;16.00;90.40
4960;DHT22;2495;48.200;11.532;2023-05-10T06:28:39;16.30;90.90
4960;DHT22;2495;48.200;11.532;2023-05-10T06:33:41;16.40;90.40
4960;DHT22;2495;48.200;11.532;2023-05-10T06:38:42;16.40;90.20
4960;DHT22;2495;48.200;11.532;2023-05-10T06:43:44;16.40;90.20
4960;DHT22;2495;48.200;11.532;2023-05-10T06:48:45;16.60;90.70
4960;DHT22;2495;48.200;11.532;2023-05-10T06:53:46;16.70;90.00
4960;DHT22;2495;48.200;11.532;2023-05-10T06:58:48;16.60;89.60
4960;DHT22;2495;48.200;11.532;2023-05-10T07:03:49;16.80;90.30
4960;DHT22;2495;48.200;11.532;2023-05-10T07:08:53;16.80;88.60
4960;DHT22;2495;48.200;11.532;2023-05-10T07:13:54;16.80;89.10
4960;DHT22;2495;48.200;11.532;2023-05-10T07:18:55;17.00;88.80
4960;DHT22;2495;48.200;11.532;2023-05-10T07:23:56;17.50;88.20
4960;DHT22;2495;48.200;11.532;2023-05-10T07:28:58;18.00;86.40
4960;DHT22;2495;48.200;11.532;2023-05-10T07:33:59;17.90;86.70
4960;DHT22;2495;48.200;11.532;2023-05-10T07:39:00;17.90;86.20
4960;DHT22;2495;48.200;11.532;2023-05-10T07:44:01;18.20;85.20
4960;DHT22;2495;48.200;11.532;2023-05-10T07:49:03;18.90;82.70
4960;DHT22;2495;48.200;11.532;2023-05-10T07:54:05;18.50;81.00
4960;DHT22;2495;48.200;11.532;2023-05-10T07:59:06;18.20;81.40
4960;DHT22;2495;48.200;11.532;2023-05-10T08:04:07;18.00;82.20
4960;DHT22;2495;48.200;11.532;2023-05-10T08:09:10;18.00;82.20
4960;DHT22;2495;48.200;11.532;2023-05-10T08:14:20;18.70;82.40
4960;DHT22;2495;48.200;11.532;2023-05-10T08:19:25;19.40;79.40
4960;DHT22;2495;48.200;11.532;2023-05-10T08:24:26;19.30;76.40
4960;DHT22;2495;48.200;11.532;2023-05-10T08:29:27;19.20;75.30
4960;DHT22;2495;48.200;11.532;2023-05-10T08:34:29;18.60;77.00
4960;DHT22;2495;48.200;11.532;2023-05-10T08:39:33;18.10;77.70
4960;DHT22;2495;48.200;11.532;2023-05-10T08:44:32;17.90;79.00
4960;DHT22;2495;48.200;11.532;2023-05-10T08:49:33;17.80;78.80
4960;DHT22;2495;48.200;11.532;2023-05-10T08:54:34;18.00;79.10
4960;DHT22;2495;48.200;11.532;2023-05-10T08:59:36;18.10;79.50
4960;DHT22;2495;48.200;11.532;2023-05-10T09:05:02;19.10;78.90
4960;DHT22;2495;48.200;11.532;2023-05-10T09:10:05;20.90;76.80
4960;DHT22;2495;48.200;11.532;2023-05-10T09:15:08;21.90;72.20
4960;DHT22;2495;48.200;11.532;2023-05-10T09:20:10;21.20;71.40
4960;DHT22;2495;48.200;11.532;2023-05-10T09:25:12;20.30;72.30
4960;DHT22;2495;48.200;11.532;2023-05-10T09:30:15;19.60;73.80
4960;DHT22;2495;48.200;11.532;2023-05-10T09:35:17;19.10;73.80
4960;DHT22;2495;48.200;11.532;2023-05-10T09:40:18;19.10;75.90
4960;DHT22;2495;48.200;11.532;2023-05-10T09:45:19;19.60;76.00
4960;DHT22;2495;48.200;11.532;2023-05-10T09:50:21;21.00;71.60
4960;DHT22;2495;48.200;11.532;2023-05-10T09:55:22;21.00;70.00
4960;DHT22;2495;48.200;11.532;2023-05-10T10:00:23;20.50;70.30
4960;DHT22;2495;48.200;11.532;2023-05-10T10:05:31;20.20;70.50
4960;DHT22;2495;48.200;11.532;2023-05-10T10:10:29;20.40;69.40
4960;DHT22;2495;48.200;11.532;2023-05-10T10:15:30;20.60;68.80
4960;DHT22;2495;48.200;11.532;2023-05-10T10:20:31;20.50;68.40
4960;DHT22;2495;48.200;11.532;2023-05-10T10:25:32;20.40;68.40
4960;DHT22;2495;48.200;11.532;2023-05-10T10:30:38;21.60;68.10
4960;DHT22;2495;48.200;11.532;2023-05-10T10:35:37;22.40;65.60
4960;DHT22;2495;48.200;11.532;2023-05-10T10:40:39;22.70;63.50
4960;DHT22;2495;48.200;11.532;2023-05-10T10:45:40;22.10;62.90
4960;DHT22;2495;48.200;11.532;2023-05-10T10:50:44;21.40;62.10
4960;DHT22;2495;48.200;11.532;2023-05-10T10:55:46;21.00;64.90
4960;DHT22;2495;48.200;11.532;2023-05-10T11:00:47;20.90;64.80
4960;DHT22;2495;48.200;11.532;2023-05-10T11:05:48;20.80;64.50
4960;DHT22;2495;48.200;11.532;2023-05-10T11:16:16;20.40;65.50
4960;DHT22;2495;48.200;11.532;2023-05-10T11:21:16;20.50;66.70
4960;DHT22;2495;48.200;11.532;2023-05-10T11:26:18;20.50;65.90
4960;DHT22;2495;48.200;11.532;2023-05-10T11:31:19;20.10;67.70
4960;DHT22;2495;48.200;11.532;2023-05-10T11:36:20;19.80;70.50
4960;DHT22;2495;48.200;11.532;2023-05-10T11:41:21;19.60;71.60
4960;DHT22;2495;48.200;11.532;2023-05-10T11:46:23;19.10;73.40
4960;DHT22;2495;48.200;11.532;2023-05-10T11:51:24;18.90;75.20
4960;DHT22;2495;48.200;11.532;2023-05-10T11:56:25;18.90;75.90
4960;DHT22;2495;48.200;11.532;2023-05-10T12:01:26;19.00;76.30
4960;DHT22;2495;48.200;11.532;2023-05-10T12:06:28;19.00;75.20
4960;DHT22;2495;48.200;11.532;2023-05-10T12:11:29;18.80;76.10
4960;DHT22;2495;48.200;11.532;2023-05-10T12:16:30;18.70;75.50
4960;DHT22;2495;48.200;11.532;2023-05-10T12:21:31;18.60;76.80
4960;DHT22;2495;48.200;11.532;2023-05-10T12:26:32;18.60;77.40
4960;DHT22;2495;48.200;11.532;2023-05-10T12:31:43;18.60;76.80
4960;DHT22;2495;48.200;11.532;2023-05-10T12:36:35;18.30;77.60
4960;DHT22;2495;48.200;11.532;2023-05-10T12:41:37;18.10;78.50
4960;DHT22;2495;48.200;11.532;2023-05-10T12:46:38;17.90;78.90
4960;DHT22;2495;48.200;11.532;2023-05-10T12:51:39;17.70;79.00
4960;DHT22;2495;48.200;11.532;2023-05-10T12:56:41;17.50;79.00
4960;DHT22;2495;48.200;11.532;2023-05-10T13:01:42;17.40;79.40
4960;DHT22;2495;48.200;11.532;2023-05-10T13:06:44;17.30;81.00
4960;DHT22;2495;48.200;11.532;2023-05-10T13:11:45;17.50;79.70
4960;DHT22;2495;48.200;11.532;2023-05-10T13:16:47;17.40;79.90
4960;DHT22;2495;48.200;11.532;2023-05-10T13:21:48;17.20;79.80
4960;DHT22;2495;48.200;11.532;2023-05-10T13:26:49;17.10;80.70
4960;DHT22;2495;48.200;11.532;2023-05-10T13:31:50;17.10;81.00
4960;DHT22;2495;48.200;11.532;2023-05-10T13:36:52;17.10;81.50
4960;DHT22;2495;48.200;11.532;2023-05-10T13:41:53;17.20;81.60
4960;DHT22;2495;48.200;11.532;2023-05-10T13:46:55;17.20;81.60
4960;DHT22;2495;48.200;11.532;2023-05-10T13:51:56;17.40;82.60
4960;DHT22;2495;48.200;11.532;2023-05-10T13:56:57;17.70;82.60
4960;DHT22;2495;48.200;11.532;2023-05-10T14:01:58;18.00;82.70
4960;DHT22;2495;48.200;11.532;2023-05-10T14:07:00;18.00;82.40
4960;DHT22;2495;48.200;11.532;2023-05-10T14:12:01;17.80;82.10
4960;DHT22;2495;48.200;11.532;2023-05-10T14:17:02;17.50;82.20
4960;DHT22;2495;48.200;11.532;2023-05-10T14:22:04;17.20;82.80
4960;DHT22;2495;48.200;11.532;2023-05-10T14:27:05;17.40;84.00
4960;DHT22;2495;48.200;11.532;2023-05-10T14:32:06;17.40;83.30
4960;DHT22;2495;48.200;11.532;2023-05-10T14:37:09;17.30;82.80
4960;DHT22;2495;48.200;11.532;2023-05-10T14:42:09;16.90;83.60
4960;DHT22;2495;48.200;11.532;2023-05-10T14:47:10;16.70;84.40
4960;DHT22;2495;48.200;11.532;2023-05-10T14:52:11;16.50;86.70
4960;DHT22;2495;48.200;11.532;2023-05-10T14:57:13;16.50;85.60
4960;DHT22;2495;48.200;11.532;2023-05-10T15:02:14;16.30;86.00
4960;DHT22;2495;48.200;11.532;2023-05-10T15:07:15;16.10;87.00
4960;DHT22;2495;48.200;11.532;2023-05-10T15:12:17;16.00;87.60
4960;DHT22;2495;48.200;11.532;2023-05-10T15:17:18;15.90;88.80
4960;DHT22;2495;48.200;11.532;2023-05-10T15:22:19;15.90;90.00
4960;DHT22;2495;48.200;11.532;2023-05-10T15:27:21;16.10;89.20
4960;DHT22;2495;48.200;11.532;2023-05-10T15:32:22;16.30;89.70
4960;DHT22;2495;48.200;11.532;2023-05-10T15:37:23;16.30;88.40
4960;DHT22;2495;48.200;11.532;2023-05-10T15:42:24;16.30;88.30
4960;DHT22;2495;48.200;11.532;2023-05-10T15:47:26;16.10;88.30
4960;DHT22;2495;48.200;11.532;2023-05-10T15:52:27;16.10;89.60
4960;DHT22;2495;48.200;11.532;2023-05-10T15:57:29;16.20;89.70
4960;DHT22;2495;48.200;11.532;2023-05-10T16:02:30;16.30;88.80
4960;DHT22;2495;48.200;11.532;2023-05-10T16:07:31;16.30;88.50
4960;DHT22;2495;48.200;11.532;2023-05-10T16:12:32;16.00;87.50
4960;DHT22;2495;48.200;11.532;2023-05-10T16:17:34;15.70;87.60
4960;DHT22;2495;48.200;11.532;2023-05-10T16:22:35;15.60;87.80
4960;DHT22;2495;48.200;11.532;2023-05-10T16:27:36;15.70;89.50
4960;DHT22;2495;48.200;11.532;2023-05-10T16:32:38;15.80;89.20
4960;DHT22;2495;48.200;11.532;2023-05-10T16:37:39;15.80;89.50
4960;DHT22;2495;48.200;11.532;2023-05-10T16:42:40;15.90;88.10
4960;DHT22;2495;48.200;11.532;2023-05-10T16:47:42;15.80;89.00
4960;DHT22;2495;48.200;11.532;2023-05-10T16:52:43;16.00;88.30
4960;DHT22;2495;48.200;11.532;2023-05-10T16:57:44;15.80;87.90
4960;DHT22;2495;48.200;11.532;2023-05-10T17:02:46;15.90;89.10
4960;DHT22;2495;48.200;11.532;2023-05-10T17:07:47;16.10;89.30
4960;DHT22;2495;48.200;11.532;2023-05-10T17:12:49;16.10;89.00
4960;DHT22;2495;48.200;11.532;2023-05-10T17:17:50;15.90;86.90
4960;DHT22;2495;48.200;11.532;2023-05-10T17:22:51;15.50;87.10
4960;DHT22;2495;48.200;11.532;2023-05-10T17:27:52;15.40;88.90
4960;DHT22;2495;48.200;11.532;2023-05-10T17:33:03;15.50;87.90
4960;DHT22;2495;48.200;11.532;2023-05-10T17:38:04;15.50;89.20
4960;DHT22;2495;48.200;11.532;2023-05-10T17:43:05;15.30;88.00
4960;DHT22;2495;48.200;11.532;2023-05-10T17:48:07;15.10;87.80
4960;DHT22;2495;48.200;11.532;2023-05-10T17:53:08;15.00;89.10
4960;DHT22;2495;48.200;11.532;2023-05-10T17:58:10;15.00;88.60
4960;DHT22;2495;48.200;11.532;2023-05-10T18:03:11;14.80;88.60
4960;DHT22;2495;48.200;11.532;2023-05-10T18:08:12;14.80;89.80
4960;DHT22;2495;48.200;11.532;2023-05-10T18:13:13;14.80;88.50
4960;DHT22;2495;48.200;11.532;2023-05-10T18:18:15;14.70;88.90
4960;DHT22;2495;48.200;11.532;2023-05-10T18:23:16;14.50;89.10
4960;DHT22;2495;48.200;11.532;2023-05-10T18:28:17;14.30;89.40
4960;DHT22;2495;48.200;11.532;2023-05-10T18:33:19;14.30;89.90
4960;DHT22;2495;48.200;11.532;2023-05-10T18:38:20;14.30;90.30
4960;DHT22;2495;48.200;11.532;2023-05-10T18:43:21;14.40;89.90
4960;DHT22;2495;48.200;11.532;2023-05-10T18:48:23;14.30;89.70
4960;DHT22;2495;48.200;11.532;2023-05-10T18:53:24;14.40;90.50
4960;DHT22;2495;48.200;11.532;2023-05-10T18:58:34;14.80;90.50
4960;DHT22;2495;48.200;11.532;2023-05-10T19:03:36;14.90;90.50
4960;DHT22;2495;48.200;11.532;2023-05-10T19:08:37;14.90;89.30
4960;DHT22;2495;48.200;11.532;2023-05-10T19:13:39;14.80;89.00
4960;DHT22;2495;48.200;11.532;2023-05-10T19:18:40;14.70;88.90
4960;DHT22;2495;48.200;11.532;2023-05-10T19:23:42;14.50;89.00
4960;DHT22;2495;48.200;11.532;2023-05-10T19:28:43;14.40;89.20
4960;DHT22;2495;48.200;11.532;2023-05-10T19:33:44;14.20;89.00
4960;DHT22;2495;48.200;11.532;2023-05-10T19:38:46;14.30;90.10
4960;DHT22;2495;48.200;11.532;2023-05-10T19:43:47;14.50;89.30
4960;DHT22;2495;48.200;11.532;2023-05-10T19:48:48;14.50;90.00
4960;DHT22;2495;48.200;11.532;2023-05-10T19:53:54;14.50;89.10
4960;DHT22;2495;48.200;11.532;2023-05-10T19:58:55;14.40;88.70
4960;DHT22;2495;48.200;11.532;2023-05-10T20:03:57;14.30;90.10
4960;DHT22;2495;48.200;11.532;2023-05-10T20:08:58;14.30;88.80
4960;DHT22;2495;48.200;11.532;2023-05-10T20:14:00;14.30;89.10
4960;DHT22;2495;48.200;11.532;2023-05-10T20:19:01;14.30;90.10
4960;DHT22;2495;48.200;11.532;2023-05-10T20:24:02;14.50;89.80
4960;DHT22;2495;48.200;11.532;2023-05-10T20:29:04;14.60;88.80
4960;DHT22;2495;48.200;11.532;2023-05-10T20:34:06;14.40;88.60
4960;DHT22;2495;48.200;11.532;2023-05-10T20:39:10;14.20;88.80
4960;DHT22;2495;48.200;11.532;2023-05-10T20:44:25;14.00;88.70
4960;DHT22;2495;48.200;11.532;2023-05-10T20:49:27;14.20;90.10
4960;DHT22;2495;48.200;11.532;2023-05-10T20:54:28;14.20;89.10
4960;DHT22;2495;48.200;11.532;2023-05-10T20:59:31;14.10;88.70
4960;DHT22;2495;48.200;11.532;2023-05-10T21:04:35;14.00;89.30
4960;DHT22;2495;48.200;11.532;2023-05-10T21:09:39;13.90;89.50
4960;DHT22;2495;48.200;11.532;2023-05-10T21:14:42;13.80;89.60
4960;DHT22;2495;48.200;11.532;2023-05-10T21:19:46;13.80;89.70
4960;DHT22;2495;48.200;11.532;2023-05-10T21:24:47;13.70;89.90
4960;DHT22;2495;48.200;11.532;2023-05-10T21:29:58;13.70;90.10
4960;DHT22;2495;48.200;11.532;2023-05-10T21:35:00;13.60;90.30
4960;DHT22;2495;48.200;11.532;2023-05-10T21:40:09;13.50;90.10
4960;DHT22;2495;48.200;11.532;2023-05-10T21:45:11;13.40;90.60
4960;DHT22;2495;48.200;11.532;2023-05-10T21:50:16;13.40;90.40
4960;DHT22;2495;48.200;11.532;2023-05-10T21:55:48;13.40;90.70
4960;DHT22;2495;48.200;11.532;2023-05-10T22:00:55;13.40;90.40
4960;DHT22;2495;48.200;11.532;2023-05-10T22:06:05;13.40;90.70
4960;DHT22;2495;48.200;11.532;2023-05-10T23:12:32;13.10;90.60
4960;DHT22;2495;48.200;11.532;2023-05-10T23:17:33;13.20;91.30
4960;DHT22;2495;48.200;11.532;2023-05-10T23:22:37;13.30;90.50
4960;DHT22;2495;48.200;11.532;2023-05-10T23:27:58;13.20;90.50
4960;DHT22;2495;48.200;11.532;2023-05-10T23:33:00;13.10;90.50
4960;DHT22;2495;48.200;11.532;2023-05-10T23:38:01;13.00;90.40
4960;DHT22;2495;48.200;11.532;2023-05-10T23:43:02;12.90;90.80
4960;DHT22;2495;48.200;11.532;2023-05-10T23:48:04;12.90;91.10
4960;DHT22;2495;48.200;11.532;2023-05-10T23:53:05;12.90;90.80
4960;DHT22;2495;48.200;11.532;2023-05-10T23:58:06;13.00;91.50
